createdAt,value
2018-05-23T00:02:14.202Z,99.90
2018-05-23T00:04:40.794Z,99.90
2018-05-23T00:07:07.358Z,99.90
2018-05-23T00:09:33.909Z,99.90
2018-05-23T00:12:00.464Z,99.90
2018-05-23T00:14:27.732Z,99.90
2018-05-23T00:16:54.998Z,99.90
2018-05-23T00:19:21.537Z,99.90
2018-05-23T00:21:48.075Z,99.90
2018-05-23T00:24:14.639Z,99.90
2018-05-23T00:26:41.183Z,99.90
2018-05-23T00:29:07.736Z,99.90
2018-05-23T00:31:34.264Z,99.90
2018-05-23T00:34:00.880Z,99.90
2018-05-23T00:36:27.400Z,99.90
2018-05-23T00:38:53.952Z,99.90
2018-05-23T00:41:20.566Z,99.90
2018-05-23T00:43:47.152Z,99.90
2018-05-23T00:46:13.722Z,99.90
2018-05-23T00:48:41.017Z,99.90
2018-05-23T00:51:07.532Z,99.90
2018-05-23T00:53:34.276Z,99.90
2018-05-23T00:56:00.813Z,99.90
2018-05-23T00:58:27.386Z,99.90
2018-05-23T01:00:53.956Z,99.90
2018-05-23T01:03:21.303Z,99.90
2018-05-23T01:05:48.584Z,99.90
2018-05-23T01:08:15.126Z,99.90
2018-05-23T01:10:41.667Z,99.90
2018-05-23T01:13:08.205Z,99.90
2018-05-23T01:15:34.822Z,99.90
2018-05-23T01:18:01.376Z,99.90
2018-05-23T01:20:27.984Z,99.90
2018-05-23T01:22:54.608Z,99.90
2018-05-23T01:25:21.294Z,99.90
2018-05-23T01:27:47.847Z,99.90
2018-05-23T01:30:14.442Z,99.90
2018-05-23T01:32:41.070Z,99.90
2018-05-23T01:35:07.656Z,99.90
2018-05-23T01:37:34.239Z,99.90
2018-05-23T01:40:01.634Z,99.90
2018-05-23T01:42:28.265Z,99.90
2018-05-23T01:44:55.595Z,99.90
2018-05-23T01:47:23.409Z,99.90
2018-05-23T01:49:49.981Z,99.90
2018-05-23T01:52:16.575Z,99.90
2018-05-23T01:54:43.190Z,99.90
2018-05-23T01:57:09.860Z,99.90
2018-05-23T01:59:36.447Z,99.90
2018-05-23T02:02:03.808Z,99.90
2018-05-23T02:04:31.155Z,99.90
2018-05-23T02:06:57.751Z,99.90
2018-05-23T02:09:24.383Z,99.90
2018-05-23T02:11:50.948Z,99.90
2018-05-23T02:14:17.520Z,99.90
2018-05-23T02:16:44.076Z,99.90
2018-05-23T02:19:10.709Z,99.90
2018-05-23T02:21:37.210Z,99.90
2018-05-23T02:24:03.824Z,99.90
2018-05-23T02:26:30.460Z,99.90
2018-05-23T02:28:56.994Z,99.90
2018-05-23T02:31:23.538Z,99.90
2018-05-23T02:33:50.102Z,99.90
2018-05-23T02:36:17.380Z,99.90
2018-05-23T02:38:43.920Z,99.90
2018-05-23T02:41:10.502Z,99.90
2018-05-23T02:43:37.076Z,99.90
2018-05-23T02:46:03.681Z,99.90
2018-05-23T02:48:30.333Z,99.90
2018-05-23T02:50:56.912Z,99.90
2018-05-23T02:53:23.455Z,99.90
2018-05-23T02:55:50.045Z,99.90
2018-05-23T02:58:17.366Z,99.90
2018-05-23T03:00:43.937Z,99.90
2018-05-23T03:03:11.231Z,99.90
2018-05-23T03:05:37.800Z,99.90
2018-05-23T03:08:05.171Z,99.90
2018-05-23T03:10:32.478Z,99.90
2018-05-23T03:12:59.013Z,99.90
2018-05-23T03:15:25.584Z,99.90
2018-05-23T03:17:52.155Z,99.90
2018-05-23T03:20:18.708Z,99.90
2018-05-23T03:22:45.261Z,99.90
2018-05-23T03:25:11.915Z,99.90
2018-05-23T03:27:38.515Z,99.90
2018-05-23T03:30:05.106Z,99.90
2018-05-23T03:32:31.655Z,99.90
2018-05-23T03:34:58.964Z,99.90
2018-05-23T03:37:25.522Z,99.90
2018-05-23T03:39:52.094Z,99.90
2018-05-23T03:42:19.409Z,99.90
2018-05-23T03:44:45.966Z,99.90
2018-05-23T03:47:12.513Z,99.90
2018-05-23T03:49:39.098Z,99.90
2018-05-23T03:52:05.662Z,99.90
2018-05-23T03:54:32.264Z,99.90
2018-05-23T03:56:58.818Z,99.90
2018-05-23T03:59:37.283Z,99.90
2018-05-23T04:02:16.695Z,99.90
2018-05-23T04:04:50.081Z,99.90
2018-05-23T04:07:35.427Z,99.90
2018-05-23T04:10:01.976Z,99.90
2018-05-23T04:12:28.556Z,99.90
2018-05-23T04:14:55.091Z,99.90
2018-05-23T04:17:21.682Z,99.90
2018-05-23T04:19:48.263Z,99.90
2018-05-23T04:22:14.806Z,99.90
2018-05-23T04:24:42.120Z,99.90
2018-05-23T04:27:08.704Z,99.90
2018-05-23T04:29:36.008Z,99.90
2018-05-23T04:32:02.651Z,99.90
2018-05-23T04:34:29.234Z,99.90
2018-05-23T04:36:56.741Z,99.90
2018-05-23T04:39:23.314Z,99.90
2018-05-23T04:41:49.982Z,99.90
2018-05-23T04:44:16.659Z,99.90
2018-05-23T04:46:43.251Z,99.90
2018-05-23T04:49:10.649Z,99.90
2018-05-23T04:51:37.232Z,99.90
2018-05-23T04:54:03.827Z,99.90
2018-05-23T04:56:30.373Z,99.90
2018-05-23T04:58:56.957Z,99.90
2018-05-23T05:01:23.541Z,99.90
2018-05-23T05:03:50.118Z,99.90
2018-05-23T05:06:17.404Z,99.90
2018-05-23T05:08:43.981Z,99.90
2018-05-23T05:11:10.577Z,99.90
2018-05-23T05:13:37.908Z,99.90
2018-05-23T05:16:04.528Z,99.90
2018-05-23T05:18:31.138Z,99.90
2018-05-23T05:20:57.794Z,99.90
2018-05-23T05:23:24.361Z,99.90
2018-05-23T05:25:51.685Z,99.90
2018-05-23T05:28:18.254Z,99.90
2018-05-23T05:30:45.563Z,99.90
2018-05-23T05:33:12.129Z,99.90
2018-05-23T05:35:38.699Z,99.90
2018-05-23T05:38:05.259Z,99.90
2018-05-23T05:40:31.957Z,99.90
2018-05-23T05:42:58.510Z,99.90
2018-05-23T05:45:25.033Z,99.90
2018-05-23T05:47:51.707Z,99.90
2018-05-23T05:50:18.260Z,99.90
2018-05-23T05:52:44.836Z,99.90
2018-05-23T05:55:12.241Z,99.90
2018-05-23T05:57:38.784Z,99.90
2018-05-23T06:00:05.494Z,99.90
2018-05-23T06:02:32.067Z,99.90
2018-05-23T06:04:58.631Z,99.90
2018-05-23T06:07:25.199Z,99.90
2018-05-23T06:09:51.802Z,99.90
2018-05-23T06:12:18.341Z,99.90
2018-05-23T06:14:44.908Z,99.90
2018-05-23T06:17:11.466Z,99.90
2018-05-23T06:19:38.024Z,99.90
2018-05-23T06:22:04.580Z,99.90
2018-05-23T06:24:31.089Z,99.90
2018-05-23T06:26:57.648Z,99.90
2018-05-23T06:29:24.245Z,99.90
2018-05-23T06:31:50.785Z,99.90
2018-05-23T06:34:17.323Z,99.90
2018-05-23T06:36:43.882Z,99.90
2018-05-23T06:39:11.142Z,99.90
2018-05-23T06:41:37.707Z,99.90
2018-05-23T06:44:04.301Z,99.90
2018-05-23T06:46:30.844Z,99.90
2018-05-23T06:48:58.127Z,99.90
2018-05-23T06:51:25.410Z,99.90
2018-05-23T06:53:51.968Z,99.90
2018-05-23T06:56:18.532Z,99.90
2018-05-23T06:58:45.152Z,99.90
2018-05-23T07:01:11.780Z,99.90
2018-05-23T07:03:38.380Z,99.90
2018-05-23T07:06:05.669Z,99.90
2018-05-23T07:08:32.282Z,99.90
2018-05-23T07:10:58.848Z,99.90
2018-05-23T07:13:26.135Z,99.90
2018-05-23T07:15:52.689Z,99.90
2018-05-23T07:18:19.238Z,99.90
2018-05-23T07:20:46.511Z,99.00
2018-05-23T07:23:13.125Z,98.90
2018-05-23T07:25:39.688Z,99.50
2018-05-23T07:28:06.262Z,99.40
2018-05-23T07:30:32.888Z,98.70
2018-05-23T07:32:59.455Z,97.10
2018-05-23T07:35:25.989Z,96.80
2018-05-23T07:37:52.551Z,97.30
2018-05-23T07:40:19.102Z,98.40
2018-05-23T07:42:45.698Z,97.30
2018-05-23T07:45:12.378Z,97.70
2018-05-23T07:47:38.921Z,96.40
2018-05-23T07:50:05.484Z,95.80
2018-05-23T07:52:32.030Z,98.30
2018-05-23T07:54:58.604Z,95.20
2018-05-23T07:57:25.155Z,96.40
2018-05-23T07:59:51.688Z,95.70
2018-05-23T08:02:18.276Z,95.30
2018-05-23T08:04:44.889Z,95.00
2018-05-23T08:07:12.194Z,96.10
2018-05-23T08:09:39.447Z,94.40
2018-05-23T08:12:06.748Z,95.50
2018-05-23T08:14:33.264Z,95.60
2018-05-23T08:16:59.996Z,94.80
2018-05-23T08:19:26.574Z,93.10
2018-05-23T08:21:53.143Z,91.10
2018-05-23T08:24:19.769Z,90.20
2018-05-23T08:26:46.266Z,92.20
2018-05-23T08:29:12.835Z,92.70
2018-05-23T08:31:39.410Z,93.10
2018-05-23T08:34:05.948Z,93.80
2018-05-23T08:36:32.551Z,92.00
2018-05-23T08:38:59.076Z,87.80
2018-05-23T08:41:25.620Z,91.10
2018-05-23T08:43:52.259Z,90.20
2018-05-23T08:46:19.569Z,89.40
2018-05-23T08:48:46.117Z,89.80
2018-05-23T08:51:12.671Z,90.90
2018-05-23T08:53:39.207Z,88.10
2018-05-23T08:56:05.743Z,90.00
2018-05-23T08:58:33.037Z,81.40
2018-05-23T09:00:59.587Z,81.30
2018-05-23T09:03:26.124Z,81.40
2018-05-23T09:05:52.724Z,85.30
2018-05-23T09:08:19.270Z,87.50
2018-05-23T09:10:45.818Z,84.50
2018-05-23T09:13:12.359Z,79.50
2018-05-23T09:15:39.648Z,88.20
2018-05-23T09:18:06.183Z,88.30
2018-05-23T09:20:32.739Z,88.30
2018-05-23T09:22:59.297Z,88.10
2018-05-23T09:25:25.860Z,90.40
2018-05-23T09:27:52.416Z,83.60
2018-05-23T09:30:18.950Z,82.20
2018-05-23T09:32:45.484Z,82.20
2018-05-23T09:35:12.137Z,82.30
2018-05-23T09:37:38.662Z,82.20
2018-05-23T09:40:05.193Z,81.40
2018-05-23T09:42:31.716Z,82.70
2018-05-23T09:44:58.247Z,85.50
2018-05-23T09:47:25.516Z,81.20
2018-05-23T09:49:52.076Z,81.40
2018-05-23T09:52:19.473Z,84.50
2018-05-23T09:54:45.994Z,85.60
2018-05-23T09:57:12.571Z,82.30
2018-05-23T09:59:39.151Z,81.50
2018-05-23T10:02:05.694Z,83.00
2018-05-23T10:04:32.972Z,77.80
2018-05-23T10:06:59.814Z,77.80
2018-05-23T10:09:26.348Z,75.60
2018-05-23T10:11:52.885Z,78.80
2018-05-23T10:16:55.974Z,84.40
2018-05-23T10:19:23.275Z,83.00
2018-05-23T10:21:49.875Z,83.10
2018-05-23T10:24:16.470Z,82.70
2018-05-23T10:26:43.319Z,77.20
2018-05-23T10:29:09.924Z,77.90
2018-05-23T10:31:36.433Z,80.70
2018-05-23T10:34:03.018Z,82.30
2018-05-23T10:36:29.559Z,81.50
2018-05-23T10:38:56.141Z,83.90
2018-05-23T10:41:22.677Z,78.30
2018-05-23T10:43:49.245Z,81.80
2018-05-23T10:46:15.865Z,80.30
2018-05-23T10:48:42.379Z,76.90
2018-05-23T10:51:08.947Z,75.80
2018-05-23T10:53:36.301Z,70.80
2018-05-23T10:56:03.565Z,67.60
2018-05-23T10:58:30.113Z,67.80
2018-05-23T11:00:56.698Z,69.70
2018-05-23T11:03:23.227Z,68.30
2018-05-23T11:05:49.776Z,65.40
2018-05-23T11:08:16.322Z,67.10
2018-05-23T11:10:42.871Z,67.80
2018-05-23T11:13:10.175Z,72.80
2018-05-23T11:15:36.756Z,72.90
2018-05-23T11:18:03.279Z,74.10
2018-05-23T11:20:30.306Z,74.70
2018-05-23T11:22:56.867Z,74.10
2018-05-23T11:25:24.221Z,70.70
2018-05-23T11:27:51.504Z,68.90
2018-05-23T11:30:18.057Z,68.80
2018-05-23T11:32:46.132Z,73.00
2018-05-23T11:35:12.675Z,73.00
2018-05-23T11:37:39.214Z,75.30
2018-05-23T11:40:05.766Z,82.60
2018-05-23T11:42:32.492Z,76.30
2018-05-23T11:44:59.001Z,67.00
2018-05-23T11:47:25.514Z,63.00
2018-05-23T11:49:52.788Z,64.90
2018-05-23T11:52:19.386Z,64.60
2018-05-23T11:54:45.893Z,66.70
2018-05-23T11:57:12.433Z,69.10
2018-05-23T11:59:38.951Z,65.70
2018-05-23T12:02:05.488Z,71.20
2018-05-23T12:04:32.075Z,68.10
2018-05-23T12:06:58.658Z,65.10
2018-05-23T12:09:25.183Z,64.40
2018-05-23T12:11:51.717Z,62.40
2018-05-23T12:14:18.241Z,66.30
2018-05-23T12:16:44.818Z,69.00
2018-05-23T12:19:11.398Z,62.80
2018-05-23T12:21:37.927Z,61.70
2018-05-23T12:24:04.586Z,64.20
2018-05-23T12:26:31.932Z,62.10
2018-05-23T12:28:59.205Z,64.70
2018-05-23T12:31:25.752Z,64.80
2018-05-23T12:33:52.308Z,60.10
2018-05-23T12:36:18.903Z,63.90
2018-05-23T12:38:45.456Z,64.30
2018-05-23T12:41:12.014Z,63.20
2018-05-23T12:43:38.575Z,63.80
2018-05-23T12:46:05.166Z,61.70
2018-05-23T12:48:31.702Z,64.00
2018-05-23T12:50:58.289Z,63.80
2018-05-23T12:53:24.814Z,64.10
2018-05-23T12:55:51.357Z,63.50
2018-05-23T12:58:17.904Z,61.80
2018-05-23T13:00:44.500Z,63.20
2018-05-23T13:03:11.094Z,59.70
2018-05-23T13:05:38.489Z,59.60
2018-05-23T13:08:05.109Z,59.50
2018-05-23T13:10:31.637Z,59.80
2018-05-23T13:12:58.296Z,63.50
2018-05-23T13:15:24.840Z,60.90
2018-05-23T13:17:51.375Z,59.30
2018-05-23T13:20:17.943Z,64.10
2018-05-23T13:22:45.273Z,59.50
2018-05-23T13:25:11.880Z,59.50
2018-05-23T13:27:38.412Z,61.80
2018-05-23T13:30:05.014Z,65.00
2018-05-23T13:32:31.538Z,62.40
2018-05-23T13:34:58.184Z,63.90
2018-05-23T13:37:24.744Z,59.80
2018-05-23T13:39:51.354Z,64.30
2018-05-23T13:42:17.923Z,58.80
2018-05-23T13:44:45.213Z,56.20
2018-05-23T13:47:11.802Z,56.20
2018-05-23T13:49:38.360Z,61.20
2018-05-23T13:52:05.675Z,58.40
2018-05-23T13:54:32.307Z,58.30
2018-05-23T13:56:58.890Z,57.90
2018-05-23T13:59:26.132Z,57.30
2018-05-23T14:01:53.504Z,56.00
2018-05-23T14:04:19.942Z,56.10
2018-05-23T14:06:46.515Z,56.30
2018-05-23T14:09:13.077Z,56.50
2018-05-23T14:11:39.639Z,59.10
2018-05-23T14:14:06.940Z,58.80
2018-05-23T14:16:34.469Z,58.80
2018-05-23T14:19:01.039Z,59.40
2018-05-23T14:21:27.568Z,61.40
2018-05-23T14:23:54.099Z,60.50
2018-05-23T14:26:20.669Z,59.50
2018-05-23T14:28:47.367Z,64.20
2018-05-23T14:31:13.910Z,61.60
2018-05-23T14:33:40.481Z,62.60
2018-05-23T14:36:07.048Z,63.10
2018-05-23T14:38:33.597Z,63.40
2018-05-23T14:41:00.241Z,62.90
2018-05-23T14:43:26.889Z,65.20
2018-05-23T14:45:53.326Z,63.60
2018-05-23T14:48:20.278Z,64.70
2018-05-23T14:50:46.835Z,66.50
2018-05-23T14:53:13.386Z,67.80
2018-05-23T14:55:39.935Z,70.40
2018-05-23T14:58:07.288Z,67.80
2018-05-23T15:00:34.567Z,69.70
2018-05-23T15:03:01.119Z,69.70
2018-05-23T15:05:27.677Z,69.60
2018-05-23T15:07:54.202Z,69.20
2018-05-23T15:10:20.800Z,70.60
2018-05-23T15:12:47.371Z,71.50
2018-05-23T15:15:13.907Z,74.60
2018-05-23T15:17:40.428Z,74.20
2018-05-23T15:20:07.087Z,75.50
2018-05-23T15:22:33.578Z,70.30
2018-05-23T15:25:00.104Z,73.40
2018-05-23T15:27:26.684Z,70.70
2018-05-23T15:29:53.229Z,70.70
2018-05-23T15:32:19.827Z,71.50
2018-05-23T15:34:47.169Z,72.20
2018-05-23T15:37:13.735Z,72.30
2018-05-23T15:39:40.354Z,74.70
2018-05-23T15:42:07.614Z,73.20
2018-05-23T15:44:34.939Z,73.30
2018-05-23T15:47:01.490Z,73.30
2018-05-23T15:49:28.814Z,71.80
2018-05-23T15:51:55.359Z,71.80
2018-05-23T15:54:21.918Z,73.00
2018-05-23T15:56:48.548Z,75.10
2018-05-23T15:59:15.112Z,76.40
2018-05-23T16:01:41.651Z,76.70
2018-05-23T16:04:08.268Z,76.90
2018-05-23T16:06:34.858Z,79.20
2018-05-23T16:09:01.503Z,80.60
2018-05-23T16:11:28.068Z,84.80
2018-05-23T16:13:55.337Z,84.60
2018-05-23T16:16:22.638Z,87.00
2018-05-23T16:18:49.198Z,86.80
2018-05-23T16:21:15.722Z,90.70
2018-05-23T16:23:42.282Z,91.80
2018-05-23T16:26:08.821Z,91.20
2018-05-23T16:28:35.381Z,91.70
2018-05-23T16:31:02.701Z,92.90
2018-05-23T16:33:29.256Z,92.80
2018-05-23T16:35:55.849Z,93.20
2018-05-23T16:38:22.454Z,92.70
2018-05-23T16:40:49.016Z,93.00
2018-05-23T16:43:15.525Z,92.60
2018-05-23T16:45:42.058Z,90.50
2018-05-23T16:48:08.592Z,91.40
2018-05-23T16:50:35.887Z,91.60
2018-05-23T16:53:02.441Z,91.60
2018-05-23T16:55:29.014Z,91.00
2018-05-23T16:57:55.549Z,91.20
2018-05-23T17:00:22.902Z,92.40
2018-05-23T17:02:50.163Z,92.20
2018-05-23T17:05:16.695Z,92.20
2018-05-23T17:07:43.968Z,92.70
2018-05-23T17:10:10.555Z,92.70
2018-05-23T17:12:37.214Z,93.70
2018-05-23T17:15:04.470Z,93.80
2018-05-23T17:17:31.263Z,93.80
2018-05-23T17:19:57.866Z,94.00
2018-05-23T17:22:24.441Z,93.40
2018-05-23T17:24:50.985Z,94.50
2018-05-23T17:27:17.606Z,95.40
2018-05-23T17:29:44.157Z,94.50
2018-05-23T17:32:10.782Z,94.00
2018-05-23T17:34:37.348Z,93.80
2018-05-23T17:37:03.979Z,93.90
2018-05-23T17:39:31.285Z,93.60
2018-05-23T17:41:58.855Z,93.60
2018-05-23T17:44:25.495Z,93.10
2018-05-23T17:46:52.021Z,94.40
2018-05-23T17:49:18.529Z,93.80
2018-05-23T17:51:45.192Z,96.10
2018-05-23T17:54:11.777Z,98.80
2018-05-23T17:56:39.039Z,97.50
2018-05-23T17:59:05.902Z,97.40
2018-05-23T18:01:33.319Z,99.90
2018-05-23T18:04:00.007Z,99.90
2018-05-23T18:06:27.433Z,99.90
2018-05-23T18:08:53.953Z,99.90
2018-05-23T18:11:21.388Z,99.90
2018-05-23T18:13:48.182Z,99.90
2018-05-23T18:16:14.841Z,99.90
2018-05-23T18:18:41.477Z,99.90
2018-05-23T18:21:08.036Z,99.90
2018-05-23T18:23:34.624Z,99.90
2018-05-23T18:26:01.168Z,99.90
2018-05-23T18:28:27.713Z,99.90
2018-05-23T18:30:54.230Z,99.90
2018-05-23T18:33:20.760Z,99.90
2018-05-23T18:35:48.086Z,99.90
2018-05-23T18:38:14.668Z,99.90
2018-05-23T18:40:42.002Z,99.90
2018-05-23T18:43:08.573Z,99.90
2018-05-23T18:45:35.836Z,99.90
2018-05-23T18:48:04.032Z,99.90
2018-05-23T18:50:30.608Z,99.90
2018-05-23T18:52:57.280Z,99.90
2018-05-23T18:55:24.547Z,99.90
2018-05-23T18:57:51.170Z,99.90
2018-05-23T19:00:17.756Z,99.90
2018-05-23T19:02:45.211Z,99.90
2018-05-23T19:05:11.892Z,99.90
2018-05-23T19:07:38.348Z,99.90
2018-05-23T19:10:04.905Z,99.90
2018-05-23T19:12:31.446Z,99.90
2018-05-23T19:14:58.028Z,99.90
2018-05-23T19:17:24.546Z,99.90
2018-05-23T19:19:51.244Z,99.90
2018-05-23T19:22:17.827Z,99.90
2018-05-23T19:24:44.354Z,99.90
2018-05-23T19:27:10.909Z,99.90
2018-05-23T19:29:37.527Z,99.90
2018-05-23T19:32:04.076Z,99.90
2018-05-23T19:34:30.642Z,99.90
2018-05-23T19:36:58.021Z,99.90
2018-05-23T19:39:24.508Z,99.90
2018-05-23T19:41:53.948Z,99.90
2018-05-23T19:44:23.851Z,99.90
2018-05-23T19:46:52.105Z,99.90
2018-05-23T19:49:18.646Z,99.90
2018-05-23T19:51:45.171Z,99.90
2018-05-23T19:54:11.676Z,99.90
2018-05-23T19:56:38.352Z,99.90
2018-05-23T19:59:04.888Z,99.90
2018-05-23T20:01:31.511Z,99.90
2018-05-23T20:03:58.040Z,99.90
2018-05-23T20:06:24.560Z,99.90
2018-05-23T20:08:51.101Z,99.90
2018-05-23T20:11:18.405Z,99.90
2018-05-23T20:13:44.983Z,99.90
2018-05-23T20:16:13.677Z,99.90
2018-05-23T20:18:40.225Z,99.90
2018-05-23T20:21:06.856Z,99.90
2018-05-23T20:23:33.444Z,99.90
2018-05-23T20:26:00.728Z,99.90
2018-05-23T20:28:27.341Z,99.90
2018-05-23T20:30:54.685Z,99.90
2018-05-23T20:33:21.275Z,99.90
2018-05-23T20:35:47.909Z,99.90
2018-05-23T20:38:14.544Z,99.90
2018-05-23T20:40:41.182Z,99.90
2018-05-23T20:43:07.844Z,99.90
2018-05-23T20:45:34.500Z,99.90
2018-05-23T20:48:01.086Z,99.90
2018-05-23T20:50:27.643Z,99.90
2018-05-23T20:52:54.275Z,99.90
2018-05-23T20:55:21.607Z,99.90
2018-05-23T20:57:48.258Z,99.90
2018-05-23T21:00:14.880Z,99.90
2018-05-23T21:02:41.465Z,99.90
2018-05-23T21:05:08.047Z,99.90
2018-05-23T21:07:34.609Z,99.90
2018-05-23T21:10:01.210Z,99.90
2018-05-23T21:12:28.507Z,99.90
2018-05-23T21:14:55.069Z,99.90
2018-05-23T21:17:21.661Z,99.90
2018-05-23T21:19:48.201Z,99.90
2018-05-23T21:22:14.789Z,99.90
2018-05-23T21:24:41.323Z,99.90
2018-05-23T21:27:07.840Z,99.90
2018-05-23T21:29:34.361Z,99.90
2018-05-23T21:32:00.913Z,99.90
2018-05-23T21:34:27.439Z,99.90
2018-05-23T21:36:53.991Z,99.90
2018-05-23T21:39:20.551Z,99.90
2018-05-23T21:41:47.114Z,99.90
2018-05-23T21:44:13.638Z,99.90
2018-05-23T21:46:40.936Z,99.90
2018-05-23T21:49:07.508Z,99.90
2018-05-23T21:51:34.119Z,99.90
2018-05-23T21:54:00.691Z,99.90
2018-05-23T21:56:27.984Z,99.90
2018-05-23T21:58:54.548Z,99.90
2018-05-23T22:01:21.091Z,99.90
2018-05-23T22:03:47.632Z,99.90
2018-05-23T22:06:14.174Z,99.90
2018-05-23T22:08:40.721Z,99.90
2018-05-23T22:11:07.315Z,99.90
2018-05-23T22:13:33.877Z,99.90
2018-05-23T22:16:00.437Z,99.90
2018-05-23T22:18:27.715Z,99.90
2018-05-23T22:20:54.296Z,99.90
2018-05-23T22:23:20.826Z,99.90
2018-05-23T22:25:47.429Z,99.90
2018-05-23T22:28:13.987Z,99.90
2018-05-23T22:30:40.611Z,99.90
2018-05-23T22:33:07.080Z,99.90
2018-05-23T22:35:34.369Z,99.90
2018-05-23T22:38:01.623Z,99.90
2018-05-23T22:40:28.900Z,99.90
2018-05-23T22:42:55.469Z,99.90
2018-05-23T22:45:22.022Z,99.90
2018-05-23T22:47:48.635Z,99.90
2018-05-23T22:50:15.160Z,99.90
2018-05-23T22:52:41.712Z,99.90
2018-05-23T22:55:08.229Z,99.90
2018-05-23T22:57:34.832Z,99.90
2018-05-23T23:00:01.373Z,99.90
2018-05-23T23:02:27.913Z,99.90
2018-05-23T23:04:54.470Z,99.90
2018-05-23T23:07:21.023Z,99.90
2018-05-23T23:09:47.601Z,99.90
2018-05-23T23:12:14.868Z,99.90
2018-05-23T23:14:41.388Z,99.90
2018-05-23T23:17:07.913Z,99.90
2018-05-23T23:19:34.513Z,99.90
2018-05-23T23:22:01.065Z,99.90
2018-05-23T23:24:27.619Z,99.90
2018-05-23T23:26:54.165Z,99.90
2018-05-23T23:29:20.716Z,99.90
2018-05-23T23:31:48.015Z,99.90
2018-05-23T23:34:14.593Z,99.90
2018-05-23T23:36:41.141Z,99.90
2018-05-23T23:39:07.710Z,99.90
2018-05-23T23:41:34.307Z,99.90
2018-05-23T23:44:00.862Z,99.90
2018-05-23T23:46:28.159Z,99.90
2018-05-23T23:48:54.719Z,99.90
2018-05-23T23:51:21.250Z,99.90
2018-05-23T23:53:48.538Z,99.90
2018-05-23T23:56:15.096Z,99.90
2018-05-23T23:58:41.676Z,99.90
